createdAt,value
2022-11-25T00:04:39.647Z,8.57
2022-11-25T00:09:41.781Z,13.00
2022-11-25T00:14:43.884Z,9.88
2022-11-25T00:19:46.034Z,11.32
2022-11-25T00:24:48.140Z,14.32
2022-11-25T00:29:50.364Z,12.85
2022-11-25T00:34:52.578Z,7.95
2022-11-25T00:39:54.787Z,12.32
2022-11-25T00:44:57.012Z,11.30
2022-11-25T00:49:59.139Z,12.65
2022-11-25T00:55:01.228Z,10.18
2022-11-25T01:00:05.355Z,14.80
2022-11-25T01:05:07.842Z,11.65
2022-11-25T01:10:11.736Z,10.98
2022-11-25T01:15:13.954Z,12.55
2022-11-25T01:20:16.942Z,6.95
2022-11-25T01:25:19.304Z,7.90
2022-11-25T01:30:21.495Z,6.78
2022-11-25T01:35:23.737Z,7.60
2022-11-25T01:40:25.883Z,10.73
2022-11-25T01:45:28.868Z,7.30
2022-11-25T01:50:34.100Z,8.85
2022-11-25T01:55:38.824Z,5.77
2022-11-25T02:00:41.250Z,6.03
2022-11-25T02:05:52.793Z,11.38
2022-11-25T02:10:56.073Z,10.55
2022-11-25T02:15:58.424Z,12.10
2022-11-25T02:21:00.781Z,13.65
2022-11-25T02:26:04.547Z,17.33
2022-11-25T02:31:08.368Z,10.32
2022-11-25T02:36:17.514Z,11.98
2022-11-25T02:41:37.398Z,14.18
2022-11-25T02:46:41.112Z,8.40
2022-11-25T02:51:45.080Z,8.25
2022-11-25T02:56:47.628Z,6.88
2022-11-25T03:01:50.285Z,7.25
2022-11-25T03:06:52.475Z,16.10
2022-11-25T03:12:12.990Z,14.18
2022-11-25T03:17:15.597Z,10.93
2022-11-25T03:22:17.905Z,7.15
2022-11-25T03:27:20.101Z,7.35
2022-11-25T03:32:22.418Z,15.65
2022-11-25T03:37:24.962Z,7.80
2022-11-25T03:42:27.537Z,9.02
2022-11-25T03:47:31.395Z,15.48
2022-11-25T03:52:33.730Z,9.27
2022-11-25T03:57:36.101Z,7.88
2022-11-25T04:02:38.521Z,8.48
2022-11-25T04:07:40.786Z,9.88
2022-11-25T04:12:46.679Z,4.93
2022-11-25T04:17:53.254Z,13.57
2022-11-25T04:22:55.790Z,7.20
2022-11-25T04:27:58.571Z,5.72
2022-11-25T04:33:06.724Z,8.60
2022-11-25T04:38:09.066Z,7.28
2022-11-25T04:43:13.165Z,6.88
2022-11-25T04:48:21.339Z,5.72
2022-11-25T04:53:23.931Z,4.55
2022-11-25T04:58:44.766Z,7.53
2022-11-25T05:03:55.977Z,7.47
2022-11-25T05:09:01.005Z,5.07
2022-11-25T05:14:04.090Z,6.28
2022-11-25T05:19:06.928Z,4.35
2022-11-25T05:24:09.251Z,5.80
2022-11-25T05:29:12.174Z,6.70
2022-11-25T05:34:14.462Z,6.38
2022-11-25T05:39:19.784Z,8.48
2022-11-25T05:44:40.543Z,6.88
2022-11-25T05:49:43.655Z,5.00
2022-11-25T05:54:45.979Z,9.45
2022-11-25T05:59:48.465Z,7.55
2022-11-25T06:04:56.997Z,10.02
2022-11-25T06:10:03.122Z,7.68
2022-11-25T06:15:08.550Z,7.63
2022-11-25T06:20:12.025Z,7.15
2022-11-25T06:25:14.709Z,8.80
2022-11-25T06:30:18.664Z,11.32
2022-11-25T06:35:31.331Z,12.55
2022-11-25T06:40:37.093Z,13.20
2022-11-25T06:45:39.276Z,10.98
2022-11-25T06:50:41.535Z,9.70
2022-11-25T06:55:43.671Z,9.05
2022-11-25T07:00:46.023Z,15.27
2022-11-25T07:05:48.233Z,7.05
2022-11-25T07:10:50.830Z,8.32
2022-11-25T07:15:53.005Z,9.90
2022-11-25T07:20:55.135Z,4.72
2022-11-25T07:26:02.724Z,4.07
2022-11-25T07:31:31.039Z,8.50
2022-11-25T07:36:35.166Z,6.82
2022-11-25T07:41:38.429Z,4.50
2022-11-25T07:46:43.823Z,6.00
2022-11-25T07:51:51.339Z,8.48
2022-11-25T07:56:53.750Z,5.97
2022-11-25T08:01:56.611Z,6.30
2022-11-25T08:06:59.095Z,6.80
2022-11-25T08:12:01.382Z,10.63
2022-11-25T08:17:06.122Z,7.07
2022-11-25T08:22:08.471Z,6.85
2022-11-25T08:27:10.740Z,5.68
2022-11-25T08:32:12.922Z,5.93
2022-11-25T08:37:15.065Z,7.32
2022-11-25T08:42:17.319Z,7.00
2022-11-25T08:47:19.568Z,7.38
2022-11-25T08:52:22.640Z,6.47
2022-11-25T08:57:24.867Z,9.50
2022-11-25T09:02:27.494Z,12.25
2022-11-25T09:07:30.997Z,7.28
2022-11-25T09:12:33.422Z,7.68
2022-11-25T09:17:37.452Z,10.82
2022-11-25T09:22:39.690Z,9.00
2022-11-25T09:27:41.926Z,12.88
2022-11-25T09:32:44.764Z,10.43
2022-11-25T09:37:47.147Z,10.88
2022-11-25T09:43:20.387Z,12.40
2022-11-25T09:48:37.923Z,11.82
2022-11-25T09:53:47.642Z,8.02
2022-11-25T09:59:07.377Z,11.52
2022-11-25T10:04:27.188Z,10.55
2022-11-25T10:09:34.033Z,10.48
2022-11-25T10:14:47.195Z,6.55
2022-11-25T10:19:55.740Z,9.80
2022-11-25T10:25:22.994Z,10.13
2022-11-25T10:30:47.293Z,10.60
2022-11-25T10:35:53.641Z,8.88
2022-11-25T10:40:56.640Z,8.38
2022-11-25T10:46:08.045Z,11.23
2022-11-25T10:51:29.432Z,8.63
2022-11-25T10:56:41.876Z,13.82
2022-11-25T11:01:44.424Z,9.13
2022-11-25T11:06:49.983Z,7.70
2022-11-25T11:11:52.146Z,8.93
2022-11-25T11:16:56.558Z,13.38
2022-11-25T11:22:16.450Z,14.07
2022-11-25T11:27:24.816Z,8.27
2022-11-25T11:32:29.214Z,12.05
2022-11-25T11:37:47.524Z,15.07
2022-11-25T11:43:03.563Z,12.07
2022-11-25T11:48:37.796Z,11.20
2022-11-25T11:53:58.077Z,7.15
2022-11-25T11:59:27.740Z,10.02
2022-11-25T12:04:41.811Z,11.10
2022-11-25T12:09:56.003Z,13.88
2022-11-25T12:15:12.030Z,7.03
2022-11-25T12:20:52.702Z,5.15
2022-11-25T12:26:01.736Z,5.72
2022-11-25T12:31:19.380Z,3.42
2022-11-25T12:36:44.201Z,7.00
2022-11-25T12:42:06.173Z,4.30
2022-11-25T12:47:11.225Z,4.57
2022-11-25T12:52:32.411Z,5.67
2022-11-25T12:58:05.322Z,5.85
2022-11-25T13:03:33.779Z,7.30
2022-11-25T13:08:57.105Z,3.90
2022-11-25T13:14:22.095Z,9.95
2022-11-25T13:19:24.717Z,7.25
2022-11-25T13:24:41.506Z,11.30
2022-11-25T13:29:43.610Z,6.53
2022-11-25T13:34:45.801Z,7.38
2022-11-25T13:39:47.986Z,6.07
2022-11-25T13:44:58.720Z,4.90
2022-11-25T13:50:21.778Z,5.20
2022-11-25T13:55:35.318Z,5.72
2022-11-25T14:00:37.518Z,8.73
2022-11-25T14:06:09.021Z,5.22
2022-11-25T14:11:11.277Z,5.82
2022-11-25T14:16:19.654Z,7.38
2022-11-25T14:21:55.443Z,9.05
2022-11-25T14:27:00.103Z,13.57
2022-11-25T14:32:14.906Z,6.90
2022-11-25T14:37:26.086Z,10.52
2022-11-25T14:42:34.938Z,4.38
2022-11-25T14:47:39.247Z,6.65
2022-11-25T14:52:44.223Z,9.45
2022-11-25T14:57:46.728Z,7.38
2022-11-25T15:03:17.946Z,9.02
2022-11-25T15:08:22.218Z,8.88
2022-11-25T15:13:39.841Z,9.65
2022-11-25T15:18:54.933Z,11.48
2022-11-25T15:23:57.640Z,10.60
2022-11-25T15:29:13.910Z,8.85
2022-11-25T15:34:20.119Z,7.57
2022-11-25T15:39:27.643Z,6.57
2022-11-25T15:44:40.752Z,7.55
2022-11-25T15:49:57.246Z,4.95
2022-11-25T15:55:08.092Z,4.90
2022-11-25T16:00:23.323Z,6.47
2022-11-25T16:05:31.773Z,5.20
2022-11-25T16:10:55.767Z,6.40
2022-11-25T16:16:18.839Z,4.85
2022-11-25T16:21:32.957Z,7.10
2022-11-25T16:26:50.630Z,7.50
2022-11-25T16:31:52.978Z,5.57
2022-11-25T16:36:55.385Z,8.65
2022-11-25T16:42:02.581Z,11.02
2022-11-25T16:47:04.890Z,9.85
2022-11-25T16:52:07.159Z,15.82
2022-11-25T16:57:27.553Z,5.75
2022-11-25T17:02:30.021Z,9.55
2022-11-25T17:07:33.704Z,6.07
2022-11-25T17:12:38.030Z,7.28
2022-11-25T17:17:40.400Z,4.70
2022-11-25T17:22:42.700Z,4.32
2022-11-25T17:27:47.974Z,7.90
2022-11-25T17:33:00.952Z,9.13
2022-11-25T17:38:12.256Z,4.90
2022-11-25T17:43:20.204Z,10.63
2022-11-25T17:48:22.452Z,22.08
2022-11-25T17:53:25.015Z,17.40
2022-11-25T17:58:27.300Z,14.23
2022-11-25T18:03:29.546Z,15.75
2022-11-25T18:08:31.744Z,18.88
2022-11-25T18:13:38.719Z,60.70
2022-11-25T18:18:40.914Z,76.43
2022-11-25T18:23:43.883Z,65.78
2022-11-25T18:28:46.227Z,58.25
2022-11-25T18:33:48.418Z,48.08
2022-11-25T18:38:51.577Z,54.78
2022-11-25T18:43:54.002Z,39.63
2022-11-25T18:48:56.489Z,27.05
2022-11-25T18:53:58.681Z,38.45
2022-11-25T18:59:02.035Z,88.25
2022-11-25T19:04:04.565Z,45.75
2022-11-25T19:09:06.931Z,33.28
2022-11-25T19:14:34.305Z,26.35
2022-11-25T19:19:38.021Z,20.02
2022-11-25T19:24:40.294Z,17.48
2022-11-25T19:29:42.650Z,18.67
2022-11-25T19:34:47.987Z,12.82
2022-11-25T19:39:52.025Z,12.85
2022-11-25T19:44:54.244Z,16.50
2022-11-25T19:50:00.695Z,16.83
2022-11-25T19:55:20.384Z,17.95
2022-11-25T20:00:23.866Z,15.98
2022-11-25T20:05:35.248Z,14.18
2022-11-25T20:10:37.683Z,21.25
2022-11-25T20:15:41.230Z,19.42
2022-11-25T20:20:44.433Z,11.85
2022-11-25T20:25:48.918Z,13.07
2022-11-25T20:30:52.445Z,13.93
2022-11-25T20:36:06.597Z,11.07
2022-11-25T20:41:12.304Z,13.82
2022-11-25T20:46:26.338Z,14.48
2022-11-25T20:51:28.557Z,18.73
2022-11-25T20:56:30.798Z,22.73
2022-11-25T21:01:33.026Z,24.35
2022-11-25T21:06:40.824Z,35.08
2022-11-25T21:11:43.409Z,28.10
2022-11-25T21:16:46.819Z,18.75
2022-11-25T21:21:50.771Z,16.92
2022-11-25T21:26:53.104Z,20.55
2022-11-25T21:31:55.531Z,17.05
2022-11-25T21:36:58.999Z,22.13
2022-11-25T21:42:04.790Z,33.08
2022-11-25T21:52:20.428Z,17.50
2022-11-25T21:57:27.375Z,14.38
2022-11-25T22:02:30.452Z,20.35
2022-11-25T22:07:32.836Z,19.15
2022-11-25T22:12:41.007Z,22.10
2022-11-25T22:17:44.797Z,18.55
2022-11-25T22:22:47.107Z,19.90
2022-11-25T22:27:49.870Z,23.30
2022-11-25T22:33:03.548Z,23.63
2022-11-25T22:38:17.552Z,26.30
2022-11-25T22:43:25.197Z,23.10
2022-11-25T22:48:32.325Z,19.42
2022-11-25T22:53:34.500Z,18.05
2022-11-25T22:58:36.855Z,13.10
2022-11-25T23:03:39.096Z,10.27
2022-11-25T23:08:41.313Z,11.43
2022-11-25T23:13:43.784Z,13.13
2022-11-25T23:18:46.948Z,14.45
2022-11-25T23:23:49.395Z,11.48
2022-11-25T23:28:51.712Z,10.75
2022-11-25T23:33:54.112Z,13.55
2022-11-25T23:38:59.181Z,11.52
2022-11-25T23:44:31.789Z,11.38
2022-11-25T23:49:45.141Z,9.52
2022-11-25T23:54:48.835Z,10.65
2022-11-25T23:59:52.044Z,13.02
